sensor_id;sensor_type;location;lat;lon;timestamp;temperature;humidity
44565;DHT22;30275;51.822;-0.326;2023-02-20T00:01:27;6.20;99.90
44565;DHT22;30275;51.822;-0.326;2023-02-20T00:03:53;6.10;99.90
44565;DHT22;30275;51.822;-0.326;2023-02-20T00:06:19;6.10;99.90
44565;DHT22;30275;51.822;-0.326;2023-02-20T00:08:44;6.10;99.90
44565;DHT22;30275;51.822;-0.326;2023-02-20T00:11:10;6.10;99.90
44565;DHT22;30275;51.822;-0.326;2023-02-20T00:13:36;6.10;99.90
44565;DHT22;30275;51.822;-0.326;2023-02-20T00:16:01;6.00;99.90
44565;DHT22;30275;51.822;-0.326;2023-02-20T00:18:27;6.10;99.90
44565;DHT22;30275;51.822;-0.326;2023-02-20T00:20:53;6.10;99.90
44565;DHT22;30275;51.822;-0.326;2023-02-20T00:23:18;6.00;99.90
44565;DHT22;30275;51.822;-0.326;2023-02-20T00:25:44;6.00;99.90
44565;DHT22;30275;51.822;-0.326;2023-02-20T00:28:10;6.00;99.90
44565;DHT22;30275;51.822;-0.326;2023-02-20T00:30:36;6.00;99.90
44565;DHT22;30275;51.822;-0.326;2023-02-20T00:33:01;6.00;99.90
44565;DHT22;30275;51.822;-0.326;2023-02-20T00:35:27;6.00;99.90
44565;DHT22;30275;51.822;-0.326;2023-02-20T00:37:54;6.00;99.90
44565;DHT22;30275;51.822;-0.326;2023-02-20T00:40:21;6.00;99.90
44565;DHT22;30275;51.822;-0.326;2023-02-20T00:42:47;6.00;99.90
44565;DHT22;30275;51.822;-0.326;2023-02-20T00:45:14;5.90;99.90
44565;DHT22;30275;51.822;-0.326;2023-02-20T00:47:40;5.90;99.90
44565;DHT22;30275;51.822;-0.326;2023-02-20T00:50:06;5.90;99.90
44565;DHT22;30275;51.822;-0.326;2023-02-20T00:52:32;5.90;99.90
44565;DHT22;30275;51.822;-0.326;2023-02-20T00:54:58;5.90;99.90
44565;DHT22;30275;51.822;-0.326;2023-02-20T00:57:23;5.90;99.90
44565;DHT22;30275;51.822;-0.326;2023-02-20T00:59:49;5.90;99.90
44565;DHT22;30275;51.822;-0.326;2023-02-20T01:02:16;5.90;99.90
44565;DHT22;30275;51.822;-0.326;2023-02-20T01:04:41;6.00;99.90
44565;DHT22;30275;51.822;-0.326;2023-02-20T01:07:07;6.00;99.90
44565;DHT22;30275;51.822;-0.326;2023-02-20T01:09:32;6.00;99.90
44565;DHT22;30275;51.822;-0.326;2023-02-20T01:11:58;6.10;99.90
44565;DHT22;30275;51.822;-0.326;2023-02-20T01:14:23;6.20;99.90
44565;DHT22;30275;51.822;-0.326;2023-02-20T01:16:51;6.20;99.90
44565;DHT22;30275;51.822;-0.326;2023-02-20T01:19:19;6.20;99.90
44565;DHT22;30275;51.822;-0.326;2023-02-20T01:21:45;6.20;99.90
44565;DHT22;30275;51.822;-0.326;2023-02-20T01:24:11;6.30;99.90
44565;DHT22;30275;51.822;-0.326;2023-02-20T01:26:37;6.40;99.90
44565;DHT22;30275;51.822;-0.326;2023-02-20T01:29:03;6.50;99.90
44565;DHT22;30275;51.822;-0.326;2023-02-20T01:31:29;6.50;99.90
44565;DHT22;30275;51.822;-0.326;2023-02-20T01:33:54;6.50;99.90
44565;DHT22;30275;51.822;-0.326;2023-02-20T01:36:20;6.60;99.90
44565;DHT22;30275;51.822;-0.326;2023-02-20T01:38:46;6.70;99.90
44565;DHT22;30275;51.822;-0.326;2023-02-20T01:41:16;6.70;99.90
44565;DHT22;30275;51.822;-0.326;2023-02-20T01:43:43;6.70;99.90
44565;DHT22;30275;51.822;-0.326;2023-02-20T01:49:03;6.80;99.90
44565;DHT22;30275;51.822;-0.326;2023-02-20T01:51:33;6.80;99.90
44565;DHT22;30275;51.822;-0.326;2023-02-20T01:54:00;6.80;99.90
44565;DHT22;30275;51.822;-0.326;2023-02-20T01:56:26;6.80;99.90
44565;DHT22;30275;51.822;-0.326;2023-02-20T01:58:52;6.90;99.90
44565;DHT22;30275;51.822;-0.326;2023-02-20T02:01:18;6.90;99.90
44565;DHT22;30275;51.822;-0.326;2023-02-20T02:03:46;6.90;99.90
44565;DHT22;30275;51.822;-0.326;2023-02-20T02:06:15;6.90;99.90
44565;DHT22;30275;51.822;-0.326;2023-02-20T02:08:43;6.90;99.90
44565;DHT22;30275;51.822;-0.326;2023-02-20T02:11:13;6.90;99.90
44565;DHT22;30275;51.822;-0.326;2023-02-20T02:13:41;7.00;99.90
44565;DHT22;30275;51.822;-0.326;2023-02-20T02:19:13;7.00;99.90
44565;DHT22;30275;51.822;-0.326;2023-02-20T02:30:45;7.00;99.90
44565;DHT22;30275;51.822;-0.326;2023-02-20T02:33:59;7.20;99.90
44565;DHT22;30275;51.822;-0.326;2023-02-20T02:39:26;7.20;99.90
44565;DHT22;30275;51.822;-0.326;2023-02-20T02:42:19;7.20;99.90
44565;DHT22;30275;51.822;-0.326;2023-02-20T02:44:57;7.20;99.90
44565;DHT22;30275;51.822;-0.326;2023-02-20T02:47:55;7.20;99.90
44565;DHT22;30275;51.822;-0.326;2023-02-20T02:50:32;7.20;99.90
44565;DHT22;30275;51.822;-0.326;2023-02-20T02:52:59;7.20;99.90
44565;DHT22;30275;51.822;-0.326;2023-02-20T02:55:27;7.30;99.90
44565;DHT22;30275;51.822;-0.326;2023-02-20T02:57:53;7.30;99.90
44565;DHT22;30275;51.822;-0.326;2023-02-20T03:00:47;7.40;99.90
44565;DHT22;30275;51.822;-0.326;2023-02-20T03:03:19;7.40;99.90
44565;DHT22;30275;51.822;-0.326;2023-02-20T03:08:35;7.40;99.90
44565;DHT22;30275;51.822;-0.326;2023-02-20T03:11:06;7.50;99.90
44565;DHT22;30275;51.822;-0.326;2023-02-20T03:13:36;7.50;99.90
44565;DHT22;30275;51.822;-0.326;2023-02-20T03:16:25;7.50;99.90
44565;DHT22;30275;51.822;-0.326;2023-02-20T03:18:52;7.50;99.90
44565;DHT22;30275;51.822;-0.326;2023-02-20T03:21:21;7.50;99.90
44565;DHT22;30275;51.822;-0.326;2023-02-20T03:23:55;7.60;99.90
44565;DHT22;30275;51.822;-0.326;2023-02-20T03:26:27;7.60;99.90
44565;DHT22;30275;51.822;-0.326;2023-02-20T03:29:00;7.60;99.90
44565;DHT22;30275;51.822;-0.326;2023-02-20T03:31:32;7.60;99.90
44565;DHT22;30275;51.822;-0.326;2023-02-20T03:34:20;7.60;99.90
44565;DHT22;30275;51.822;-0.326;2023-02-20T03:37:09;7.60;99.90
44565;DHT22;30275;51.822;-0.326;2023-02-20T03:40:01;7.60;99.90
44565;DHT22;30275;51.822;-0.326;2023-02-20T03:42:48;7.60;99.90
44565;DHT22;30275;51.822;-0.326;2023-02-20T03:45:35;7.60;99.90
44565;DHT22;30275;51.822;-0.326;2023-02-20T03:48:11;7.50;99.90
44565;DHT22;30275;51.822;-0.326;2023-02-20T03:50:38;7.50;99.90
44565;DHT22;30275;51.822;-0.326;2023-02-20T03:53:04;7.50;99.90
44565;DHT22;30275;51.822;-0.326;2023-02-20T03:55:29;7.50;99.90
44565;DHT22;30275;51.822;-0.326;2023-02-20T03:57:59;7.50;99.90
44565;DHT22;30275;51.822;-0.326;2023-02-20T04:00:31;7.50;99.90
44565;DHT22;30275;51.822;-0.326;2023-02-20T04:03:01;7.50;99.90
44565;DHT22;30275;51.822;-0.326;2023-02-20T04:05:31;7.50;99.90
44565;DHT22;30275;51.822;-0.326;2023-02-20T04:08:13;7.50;99.90
44565;DHT22;30275;51.822;-0.326;2023-02-20T04:10:54;7.60;99.90
44565;DHT22;30275;51.822;-0.326;2023-02-20T04:13:22;7.60;99.90
44565;DHT22;30275;51.822;-0.326;2023-02-20T04:15:51;7.60;99.90
44565;DHT22;30275;51.822;-0.326;2023-02-20T04:18:18;7.60;99.90
44565;DHT22;30275;51.822;-0.326;2023-02-20T04:20:47;7.60;99.90
44565;DHT22;30275;51.822;-0.326;2023-02-20T04:23:19;7.60;99.90
44565;DHT22;30275;51.822;-0.326;2023-02-20T04:25:58;7.60;99.90
44565;DHT22;30275;51.822;-0.326;2023-02-20T04:28:25;7.60;99.90
44565;DHT22;30275;51.822;-0.326;2023-02-20T04:30:51;7.70;99.90
44565;DHT22;30275;51.822;-0.326;2023-02-20T04:33:18;7.60;99.90
44565;DHT22;30275;51.822;-0.326;2023-02-20T04:35:44;7.60;99.90
44565;DHT22;30275;51.822;-0.326;2023-02-20T04:38:10;7.60;99.90
44565;DHT22;30275;51.822;-0.326;2023-02-20T04:40:35;7.60;99.90
44565;DHT22;30275;51.822;-0.326;2023-02-20T04:43:02;7.70;99.90
44565;DHT22;30275;51.822;-0.326;2023-02-20T04:45:27;7.70;99.90
44565;DHT22;30275;51.822;-0.326;2023-02-20T04:47:53;7.70;99.90
44565;DHT22;30275;51.822;-0.326;2023-02-20T04:50:27;7.70;99.90
44565;DHT22;30275;51.822;-0.326;2023-02-20T04:52:53;7.70;99.90
44565;DHT22;30275;51.822;-0.326;2023-02-20T04:55:19;7.70;99.90
44565;DHT22;30275;51.822;-0.326;2023-02-20T04:57:46;7.70;99.90
44565;DHT22;30275;51.822;-0.326;2023-02-20T05:00:14;7.70;99.90
44565;DHT22;30275;51.822;-0.326;2023-02-20T05:02:40;7.70;99.90
44565;DHT22;30275;51.822;-0.326;2023-02-20T05:05:08;7.70;99.90
44565;DHT22;30275;51.822;-0.326;2023-02-20T05:07:39;7.70;99.90
44565;DHT22;30275;51.822;-0.326;2023-02-20T05:10:05;7.70;99.90
44565;DHT22;30275;51.822;-0.326;2023-02-20T05:12:30;7.70;99.90
44565;DHT22;30275;51.822;-0.326;2023-02-20T05:14:56;7.80;99.90
44565;DHT22;30275;51.822;-0.326;2023-02-20T05:17:21;7.80;99.90
44565;DHT22;30275;51.822;-0.326;2023-02-20T05:19:47;7.80;99.90
44565;DHT22;30275;51.822;-0.326;2023-02-20T05:22:13;7.80;99.90
44565;DHT22;30275;51.822;-0.326;2023-02-20T05:24:49;7.70;99.90
44565;DHT22;30275;51.822;-0.326;2023-02-20T05:27:17;7.70;99.90
44565;DHT22;30275;51.822;-0.326;2023-02-20T05:29:48;7.80;99.90
44565;DHT22;30275;51.822;-0.326;2023-02-20T05:32:15;7.80;99.90
44565;DHT22;30275;51.822;-0.326;2023-02-20T05:34:42;7.80;99.90
44565;DHT22;30275;51.822;-0.326;2023-02-20T05:37:08;7.80;99.90
44565;DHT22;30275;51.822;-0.326;2023-02-20T05:39:33;7.80;99.90
44565;DHT22;30275;51.822;-0.326;2023-02-20T05:41:59;7.80;99.90
44565;DHT22;30275;51.822;-0.326;2023-02-20T05:44:25;7.80;99.90
44565;DHT22;30275;51.822;-0.326;2023-02-20T05:46:50;7.80;99.90
44565;DHT22;30275;51.822;-0.326;2023-02-20T05:49:18;7.80;99.90
44565;DHT22;30275;51.822;-0.326;2023-02-20T05:51:44;7.90;99.90
44565;DHT22;30275;51.822;-0.326;2023-02-20T05:54:09;7.80;99.90
44565;DHT22;30275;51.822;-0.326;2023-02-20T05:56:35;7.90;99.90
44565;DHT22;30275;51.822;-0.326;2023-02-20T05:59:01;7.90;99.90
44565;DHT22;30275;51.822;-0.326;2023-02-20T06:01:30;7.90;99.90
44565;DHT22;30275;51.822;-0.326;2023-02-20T06:03:56;7.80;99.90
44565;DHT22;30275;51.822;-0.326;2023-02-20T06:06:22;7.80;99.90
44565;DHT22;30275;51.822;-0.326;2023-02-20T06:08:48;7.70;99.90
44565;DHT22;30275;51.822;-0.326;2023-02-20T06:11:15;7.70;99.90
44565;DHT22;30275;51.822;-0.326;2023-02-20T06:13:42;7.70;99.90
44565;DHT22;30275;51.822;-0.326;2023-02-20T06:16:08;7.80;99.90
44565;DHT22;30275;51.822;-0.326;2023-02-20T06:18:38;7.80;99.90
44565;DHT22;30275;51.822;-0.326;2023-02-20T06:21:06;7.90;99.90
44565;DHT22;30275;51.822;-0.326;2023-02-20T06:23:32;7.90;99.90
44565;DHT22;30275;51.822;-0.326;2023-02-20T06:25:58;8.00;99.90
44565;DHT22;30275;51.822;-0.326;2023-02-20T06:28:23;8.00;99.90
44565;DHT22;30275;51.822;-0.326;2023-02-20T06:30:49;8.00;99.90
44565;DHT22;30275;51.822;-0.326;2023-02-20T06:33:15;8.10;99.90
44565;DHT22;30275;51.822;-0.326;2023-02-20T06:35:40;8.10;99.90
44565;DHT22;30275;51.822;-0.326;2023-02-20T06:38:06;8.10;99.90
44565;DHT22;30275;51.822;-0.326;2023-02-20T06:40:31;8.10;99.90
44565;DHT22;30275;51.822;-0.326;2023-02-20T06:42:57;8.10;99.90
44565;DHT22;30275;51.822;-0.326;2023-02-20T06:45:22;8.00;99.90
44565;DHT22;30275;51.822;-0.326;2023-02-20T06:47:48;8.10;99.90
44565;DHT22;30275;51.822;-0.326;2023-02-20T06:50:14;8.00;99.90
44565;DHT22;30275;51.822;-0.326;2023-02-20T06:52:39;8.10;99.90
44565;DHT22;30275;51.822;-0.326;2023-02-20T06:55:05;8.10;99.90
44565;DHT22;30275;51.822;-0.326;2023-02-20T06:57:31;8.10;99.90
44565;DHT22;30275;51.822;-0.326;2023-02-20T06:59:57;8.10;99.90
44565;DHT22;30275;51.822;-0.326;2023-02-20T07:02:23;8.10;99.90
44565;DHT22;30275;51.822;-0.326;2023-02-20T07:04:48;8.10;99.90
44565;DHT22;30275;51.822;-0.326;2023-02-20T07:07:14;8.10;99.90
44565;DHT22;30275;51.822;-0.326;2023-02-20T07:09:39;8.10;99.90
44565;DHT22;30275;51.822;-0.326;2023-02-20T07:12:05;8.10;99.90
44565;DHT22;30275;51.822;-0.326;2023-02-20T07:14:31;8.00;99.90
44565;DHT22;30275;51.822;-0.326;2023-02-20T07:16:56;8.00;99.90
